createdAt,value
2022-10-13T00:00:48.194Z,99210.41
2022-10-13T00:03:16.899Z,99210.63
2022-10-13T00:05:47.054Z,99212.16
2022-10-13T00:08:18.857Z,99222.72
2022-10-13T00:10:47.928Z,99221.59
2022-10-13T00:13:16.290Z,99223.88
2022-10-13T00:15:47.385Z,99228.91
2022-10-13T00:18:15.722Z,99231.31
2022-10-13T00:20:45.176Z,99221.94
2022-10-13T00:23:13.908Z,99223.56
2022-10-13T00:25:43.378Z,99223.59
2022-10-13T00:28:11.445Z,99231.16
2022-10-13T00:30:40.326Z,99233.72
2022-10-13T00:33:10.747Z,99235.19
2022-10-13T00:35:42.989Z,99233.41
2022-10-13T00:38:16.622Z,99220.81
2022-10-13T00:40:46.157Z,99227.84
2022-10-13T00:43:22.340Z,99220.03
2022-10-13T00:45:50.845Z,99221.47
2022-10-13T00:48:23.625Z,99216.78
2022-10-13T00:50:52.484Z,99215.56
2022-10-13T00:53:24.110Z,99225.22
2022-10-13T00:55:53.476Z,99216.81
2022-10-13T00:58:26.475Z,99221.16
2022-10-13T01:00:54.764Z,99217.56
2022-10-13T01:03:24.657Z,99209.47
2022-10-13T01:05:54.707Z,99209.34
2022-10-13T01:08:26.876Z,99212.63
2022-10-13T01:11:10.907Z,99212.88
2022-10-13T01:13:43.476Z,99215.56
2022-10-13T01:16:16.777Z,99204.03
2022-10-13T01:18:53.675Z,99213.44
2022-10-13T01:21:29.290Z,99214.13
2022-10-13T01:24:26.692Z,99204.81
2022-10-13T01:27:16.307Z,99206.34
2022-10-13T01:30:06.922Z,99207.53
2022-10-13T01:33:02.632Z,99215.78
2022-10-13T01:35:41.112Z,99204.94
2022-10-13T01:38:16.387Z,99201.81
2022-10-13T01:40:49.880Z,99202.31
2022-10-13T01:43:24.539Z,99190.47
2022-10-13T01:45:59.842Z,99190.47
2022-10-13T01:48:28.855Z,99190.25
2022-10-13T01:50:59.697Z,99184.44
2022-10-13T01:53:28.905Z,99186.09
2022-10-13T01:55:58.614Z,99182.63
2022-10-13T01:58:29.884Z,99186.19
2022-10-13T02:01:11.041Z,99183.38
2022-10-13T02:03:53.178Z,99180.56
2022-10-13T02:06:25.970Z,99175.63
2022-10-13T02:09:02.540Z,99177.31
2022-10-13T02:11:30.277Z,99182.25
2022-10-13T02:14:03.075Z,99178.63
2022-10-13T02:16:35.952Z,99185.72
2022-10-13T02:19:05.716Z,99175.91
2022-10-13T02:21:35.186Z,99177.84
2022-10-13T02:24:03.615Z,99180.00
2022-10-13T02:26:33.274Z,99189.47
2022-10-13T02:29:11.196Z,99191.78
2022-10-13T02:31:41.325Z,99189.81
2022-10-13T02:34:09.213Z,99186.94
2022-10-13T02:36:38.996Z,99190.28
2022-10-13T02:39:07.710Z,99191.38
2022-10-13T02:41:37.696Z,99186.00
2022-10-13T02:44:06.012Z,99182.13
2022-10-13T02:46:43.020Z,99187.72
2022-10-13T02:49:10.882Z,99185.63
2022-10-13T02:51:40.284Z,99179.50
2022-10-13T02:54:08.717Z,99187.09
2022-10-13T02:56:36.440Z,99174.41
2022-10-13T03:00:51.052Z,99180.47
2022-10-13T03:03:18.879Z,99176.47
2022-10-13T03:05:48.133Z,99179.50
2022-10-13T03:08:17.218Z,99178.91
2022-10-13T03:10:46.176Z,99182.25
2022-10-13T03:13:13.952Z,99170.56
2022-10-13T03:15:43.818Z,99174.06
2022-10-13T03:18:12.916Z,99169.44
2022-10-13T03:20:40.751Z,99168.13
2022-10-13T03:23:08.716Z,99176.47
2022-10-13T03:25:37.190Z,99164.41
2022-10-13T03:28:05.035Z,99163.16
2022-10-13T03:30:32.735Z,99159.16
2022-10-13T03:33:00.451Z,99155.41
2022-10-13T03:35:29.520Z,99158.53
2022-10-13T03:37:59.339Z,99156.47
2022-10-13T03:40:31.486Z,99153.72
2022-10-13T03:42:59.234Z,99146.75
2022-10-13T03:45:31.332Z,99140.59
2022-10-13T03:47:59.202Z,99137.44
2022-10-13T03:50:27.086Z,99143.09
2022-10-13T03:52:56.975Z,99146.34
2022-10-13T03:55:24.698Z,99143.81
2022-10-13T03:57:52.442Z,99149.13
2022-10-13T04:00:22.425Z,99142.72
2022-10-13T04:02:51.082Z,99148.97
2022-10-13T04:05:18.787Z,99153.19
2022-10-13T04:07:46.553Z,99147.94
2022-10-13T04:10:20.885Z,99151.25
2022-10-13T04:12:50.392Z,99146.09
2022-10-13T04:15:18.308Z,99149.25
2022-10-13T04:17:46.018Z,99153.88
2022-10-13T04:20:16.060Z,99147.81
2022-10-13T04:22:43.760Z,99138.88
2022-10-13T04:25:11.647Z,99146.59
2022-10-13T04:27:40.765Z,99138.47
2022-10-13T04:30:13.342Z,99145.19
2022-10-13T04:32:41.649Z,99146.41
2022-10-13T04:35:12.133Z,99151.56
2022-10-13T04:37:44.828Z,99137.91
2022-10-13T04:40:13.537Z,99148.31
2022-10-13T04:42:42.849Z,99145.50
2022-10-13T04:45:11.156Z,99150.66
2022-10-13T04:47:41.210Z,99137.06
2022-10-13T04:50:10.189Z,99140.81
2022-10-13T04:52:38.162Z,99133.56
2022-10-13T04:55:07.018Z,99129.22
2022-10-13T04:57:35.011Z,99134.09
2022-10-13T05:00:07.216Z,99125.06
2022-10-13T05:02:36.277Z,99114.53
2022-10-13T05:05:04.883Z,99116.22
2022-10-13T05:07:33.412Z,99114.53
2022-10-13T05:10:01.388Z,99115.47
2022-10-13T05:12:29.680Z,99127.97
2022-10-13T05:14:58.880Z,99125.06
2022-10-13T05:17:34.869Z,99133.78
2022-10-13T05:20:07.729Z,99137.50
2022-10-13T05:22:35.901Z,99127.38
2022-10-13T05:25:04.182Z,99125.63
2022-10-13T05:27:32.122Z,99138.66
2022-10-13T05:30:03.803Z,99133.84
2022-10-13T05:32:32.953Z,99136.63
2022-10-13T05:35:00.730Z,99142.38
2022-10-13T05:37:28.488Z,99139.66
2022-10-13T05:39:56.271Z,99134.16
2022-10-13T05:42:24.041Z,99137.75
2022-10-13T05:44:52.129Z,99141.84
2022-10-13T05:47:19.858Z,99143.28
2022-10-13T05:49:48.926Z,99134.94
2022-10-13T05:52:19.179Z,99146.69
2022-10-13T05:54:49.909Z,99144.03
2022-10-13T05:57:22.159Z,99133.25
2022-10-13T05:59:53.286Z,99136.91
2022-10-13T06:02:25.891Z,99133.81
2022-10-13T06:04:57.525Z,99121.97
2022-10-13T06:07:25.609Z,99127.13
2022-10-13T06:09:53.475Z,99122.47
2022-10-13T06:12:21.521Z,99113.59
2022-10-13T06:14:49.347Z,99123.84
2022-10-13T06:17:17.279Z,99120.59
2022-10-13T06:19:46.232Z,99112.56
2022-10-13T06:22:15.583Z,99116.31
2022-10-13T06:24:43.303Z,99113.97
2022-10-13T06:27:13.536Z,99116.72
2022-10-13T06:29:41.281Z,99121.66
2022-10-13T06:32:09.037Z,99132.84
2022-10-13T06:34:36.789Z,99130.03
2022-10-13T06:37:04.629Z,99133.91
2022-10-13T06:39:33.835Z,99122.94
2022-10-13T06:42:04.706Z,99129.63
2022-10-13T06:44:37.156Z,99127.44
2022-10-13T06:47:05.689Z,99126.91
2022-10-13T06:49:33.454Z,99125.34
2022-10-13T06:52:01.243Z,99117.91
2022-10-13T06:54:28.947Z,99122.03
2022-10-13T06:56:58.043Z,99117.81
2022-10-13T06:59:26.405Z,99120.38
2022-10-13T07:01:54.528Z,99115.66
2022-10-13T07:04:22.924Z,99117.97
2022-10-13T07:06:50.871Z,99110.50
2022-10-13T07:09:20.014Z,99117.47
2022-10-13T07:11:48.096Z,99123.97
2022-10-13T07:14:19.297Z,99118.69
2022-10-13T07:16:49.109Z,99122.38
2022-10-13T07:19:16.787Z,99119.94
2022-10-13T07:21:44.546Z,99118.94
2022-10-13T07:24:13.058Z,99115.31
2022-10-13T07:26:40.851Z,99118.22
2022-10-13T07:29:08.918Z,99114.06
2022-10-13T07:31:38.006Z,99114.84
2022-10-13T07:34:06.659Z,99117.34
2022-10-13T07:36:35.430Z,99105.03
2022-10-13T07:39:03.872Z,99113.09
2022-10-13T07:41:32.195Z,99112.66
2022-10-13T07:43:59.921Z,99119.13
2022-10-13T07:46:27.840Z,99117.13
2022-10-13T07:48:57.070Z,99114.97
2022-10-13T07:51:24.827Z,99120.03
2022-10-13T07:53:52.515Z,99114.44
2022-10-13T07:56:20.207Z,99114.31
2022-10-13T07:58:50.049Z,99114.16
2022-10-13T08:01:19.865Z,99114.00
2022-10-13T08:03:50.230Z,99104.81
2022-10-13T08:06:20.625Z,99100.19
2022-10-13T08:08:48.554Z,99100.31
2022-10-13T08:11:17.888Z,99098.72
2022-10-13T08:13:48.679Z,99096.31
2022-10-13T08:16:21.675Z,99095.78
2022-10-13T08:18:51.574Z,99082.09
2022-10-13T08:21:45.808Z,99078.41
2022-10-13T08:24:14.354Z,99071.69
2022-10-13T08:26:43.825Z,99078.66
2022-10-13T08:29:28.181Z,99078.97
2022-10-13T08:31:56.776Z,99076.22
2022-10-13T08:34:25.788Z,99073.97
2022-10-13T08:36:56.595Z,99085.81
2022-10-13T08:39:25.692Z,99075.88
2022-10-13T08:41:54.708Z,99076.88
2022-10-13T08:47:25.402Z,99074.13
2022-10-13T08:50:00.250Z,99077.28
2022-10-13T08:52:44.483Z,99071.81
2022-10-13T08:55:21.145Z,99074.41
2022-10-13T08:57:48.997Z,99069.31
2022-10-13T09:00:19.011Z,99070.53
2022-10-13T09:02:50.840Z,99070.28
2022-10-13T09:05:32.418Z,99070.72
2022-10-13T09:08:12.330Z,99062.19
2022-10-13T09:10:47.958Z,99062.06
2022-10-13T09:13:19.568Z,99061.03
2022-10-13T09:15:50.351Z,99063.66
2022-10-13T09:18:18.324Z,99073.06
2022-10-13T09:20:46.145Z,99060.91
2022-10-13T09:23:21.499Z,99064.31
2022-10-13T09:25:51.185Z,99063.44
2022-10-13T09:28:23.861Z,99063.75
2022-10-13T09:31:02.847Z,99063.00
2022-10-13T09:33:30.577Z,99065.72
2022-10-13T09:36:14.214Z,99061.72
2022-10-13T09:38:45.621Z,99060.53
2022-10-13T09:41:17.487Z,99059.13
2022-10-13T09:43:59.955Z,99063.09
2022-10-13T09:46:30.970Z,99064.13
2022-10-13T09:49:03.112Z,99062.66
2022-10-13T09:51:38.709Z,99070.16
2022-10-13T09:54:29.476Z,99069.34
2022-10-13T09:57:02.227Z,99062.63
2022-10-13T09:59:35.825Z,99056.13
2022-10-13T10:02:21.345Z,99043.22
2022-10-13T10:04:54.264Z,99052.81
2022-10-13T10:07:29.167Z,99054.84
2022-10-13T10:10:04.877Z,99047.50
2022-10-13T10:12:38.277Z,99054.53
2022-10-13T10:15:21.247Z,99049.28
2022-10-13T10:17:56.092Z,99051.69
2022-10-13T10:20:46.537Z,99058.00
2022-10-13T10:23:20.202Z,99057.97
2022-10-13T10:25:52.882Z,99048.31
2022-10-13T10:28:40.433Z,99052.81
2022-10-13T10:31:19.662Z,99056.16
2022-10-13T10:33:56.743Z,99044.28
2022-10-13T10:36:35.629Z,99044.81
2022-10-13T10:39:13.856Z,99049.19
2022-10-13T10:41:50.649Z,99038.72
2022-10-13T10:44:25.969Z,99042.09
2022-10-13T10:46:59.803Z,99040.22
2022-10-13T10:49:32.043Z,99032.66
2022-10-13T10:52:02.155Z,99029.03
2022-10-13T10:54:49.238Z,99027.09
2022-10-13T10:57:25.531Z,99017.72
2022-10-13T11:00:01.748Z,99005.13
2022-10-13T11:02:45.050Z,99010.28
2022-10-13T11:05:13.444Z,99008.31
2022-10-13T11:07:59.603Z,99005.53
2022-10-13T11:10:28.428Z,98997.06
2022-10-13T11:13:25.875Z,98995.97
2022-10-13T11:15:55.511Z,98996.94
2022-10-13T11:18:56.496Z,98990.72
2022-10-13T11:22:06.847Z,98975.94
2022-10-13T11:24:59.722Z,98975.44
2022-10-13T11:27:42.530Z,98974.75
2022-10-13T11:30:57.380Z,98978.97
2022-10-13T11:33:36.591Z,98974.25
2022-10-13T11:36:36.539Z,98965.53
2022-10-13T11:39:20.808Z,98974.59
2022-10-13T11:41:59.452Z,98969.81
2022-10-13T11:44:36.087Z,98955.41
2022-10-13T11:47:16.036Z,98955.47
2022-10-13T11:49:58.933Z,98948.28
2022-10-13T11:52:41.028Z,98946.25
2022-10-13T11:55:15.863Z,98945.41
2022-10-13T11:57:46.234Z,98950.44
2022-10-13T12:00:18.418Z,98943.75
2022-10-13T12:02:52.168Z,98939.03
2022-10-13T12:05:24.361Z,98932.84
2022-10-13T12:07:58.544Z,98935.63
2022-10-13T12:10:33.189Z,98922.09
2022-10-13T12:13:05.985Z,98921.25
2022-10-13T12:15:36.322Z,98926.25
2022-10-13T12:18:19.880Z,98924.91
2022-10-13T12:20:54.666Z,98913.47
2022-10-13T12:23:22.888Z,98917.22
2022-10-13T12:25:57.173Z,98902.47
2022-10-13T12:28:28.390Z,98899.41
2022-10-13T12:30:58.742Z,98894.13
2022-10-13T12:33:32.548Z,98885.44
2022-10-13T12:36:13.941Z,98884.53
2022-10-13T12:38:46.777Z,98881.25
2022-10-13T12:41:19.208Z,98889.88
2022-10-13T12:43:49.632Z,98887.16
2022-10-13T12:46:36.305Z,98875.66
2022-10-13T12:49:09.187Z,98874.13
2022-10-13T12:51:39.596Z,98870.78
2022-10-13T12:54:09.461Z,98875.59
2022-10-13T12:56:37.265Z,98871.41
2022-10-13T12:59:06.369Z,98863.72
2022-10-13T13:01:36.060Z,98857.56
2022-10-13T13:04:17.773Z,98852.44
2022-10-13T13:06:57.267Z,98860.34
2022-10-13T13:09:28.177Z,98856.81
2022-10-13T13:12:08.083Z,98855.84
2022-10-13T13:14:39.564Z,98869.28
2022-10-13T13:17:12.980Z,98865.69
2022-10-13T13:19:42.587Z,98857.63
2022-10-13T13:22:12.816Z,98861.91
2022-10-13T13:24:40.850Z,98858.06
2022-10-13T13:27:24.227Z,98845.78
2022-10-13T13:29:54.599Z,98849.72
2022-10-13T13:32:26.416Z,98849.75
2022-10-13T13:34:54.101Z,98860.00
2022-10-13T13:37:28.457Z,98849.66
2022-10-13T13:39:56.416Z,98847.00
2022-10-13T13:42:24.232Z,98855.00
2022-10-13T13:44:53.270Z,98853.34
2022-10-13T13:47:23.711Z,98854.84
2022-10-13T13:49:54.049Z,98848.75
2022-10-13T13:52:25.237Z,98846.66
2022-10-13T13:54:56.122Z,98847.63
2022-10-13T13:57:23.882Z,98846.16
2022-10-13T13:59:52.996Z,98849.63
2022-10-13T14:02:22.656Z,98849.00
2022-10-13T14:04:53.279Z,98848.00
2022-10-13T14:07:21.602Z,98843.38
2022-10-13T14:09:53.795Z,98852.34
2022-10-13T14:12:23.513Z,98837.06
2022-10-13T14:14:52.850Z,98840.13
2022-10-13T14:17:22.882Z,98834.38
2022-10-13T14:19:50.634Z,98835.47
2022-10-13T14:22:18.471Z,98832.25
2022-10-13T14:24:48.387Z,98829.41
2022-10-13T14:27:16.139Z,98834.84
2022-10-13T14:29:46.253Z,98840.38
2022-10-13T14:32:15.593Z,98833.50
2022-10-13T14:34:43.333Z,98838.38
2022-10-13T14:37:11.221Z,98840.78
2022-10-13T14:39:39.139Z,98844.06
2022-10-13T14:42:07.428Z,98840.03
2022-10-13T14:44:35.152Z,98835.44
2022-10-13T14:47:02.875Z,98842.38
2022-10-13T14:49:31.983Z,98846.44
2022-10-13T14:51:59.656Z,98845.91
2022-10-13T14:54:28.919Z,98846.75
2022-10-13T14:56:56.605Z,98842.06
2022-10-13T14:59:24.258Z,98839.41
2022-10-13T15:01:51.938Z,98845.38
2022-10-13T15:04:19.620Z,98842.81
2022-10-13T15:11:07.196Z,98846.19
2022-10-13T15:13:35.001Z,98838.06
2022-10-13T15:16:04.676Z,98831.47
2022-10-13T15:18:33.133Z,98842.81
2022-10-13T15:21:01.017Z,98840.38
2022-10-13T15:23:29.223Z,98846.53
2022-10-13T15:25:58.632Z,98848.59
2022-10-13T15:28:29.745Z,98843.25
2022-10-13T15:30:57.590Z,98853.16
2022-10-13T15:33:25.338Z,98845.50
2022-10-13T15:35:54.627Z,98844.22
2022-10-13T15:38:23.180Z,98844.28
2022-10-13T15:40:50.907Z,98843.38
2022-10-13T15:43:19.467Z,98845.78
2022-10-13T15:45:56.371Z,98846.13
2022-10-13T15:48:24.734Z,98852.63
2022-10-13T15:50:52.575Z,98852.44
2022-10-13T15:53:20.938Z,98853.44
2022-10-13T15:55:49.678Z,98849.34
2022-10-13T15:58:18.145Z,98864.16
2022-10-13T16:00:46.462Z,98855.75
2022-10-13T16:03:17.702Z,98854.75
2022-10-13T16:05:46.779Z,98853.97
2022-10-13T16:08:15.189Z,98846.56
2022-10-13T16:10:44.233Z,98847.19
2022-10-13T16:13:15.289Z,98853.00
2022-10-13T16:15:43.056Z,98852.03
2022-10-13T16:18:11.122Z,98841.84
2022-10-13T16:20:45.233Z,98837.53
2022-10-13T16:23:13.171Z,98844.63
2022-10-13T16:25:41.020Z,98871.22
2022-10-13T16:28:08.705Z,98873.81
2022-10-13T16:30:37.334Z,98870.50
2022-10-13T16:33:05.195Z,98858.44
2022-10-13T16:35:34.205Z,98857.41
2022-10-13T16:38:05.471Z,98853.06
2022-10-13T16:40:38.014Z,98845.78
2022-10-13T16:43:05.769Z,98859.09
2022-10-13T16:45:55.262Z,98864.28
2022-10-13T16:48:21.478Z,98863.19
2022-10-13T16:50:49.167Z,98862.34
2022-10-13T16:53:21.573Z,98859.00
2022-10-13T16:55:49.336Z,98855.31
2022-10-13T16:58:17.866Z,98837.19
2022-10-13T17:00:45.662Z,98843.84
2022-10-13T17:03:13.486Z,98850.88
2022-10-13T17:05:41.334Z,98862.06
2022-10-13T17:08:09.069Z,98852.91
2022-10-13T17:10:38.208Z,98857.88
2022-10-13T17:13:06.081Z,98842.19
2022-10-13T17:15:33.883Z,98854.44
2022-10-13T17:18:01.582Z,98854.72
2022-10-13T17:20:29.325Z,98855.69
2022-10-13T17:22:57.057Z,98857.47
2022-10-13T17:25:25.047Z,98851.53
2022-10-13T17:27:54.316Z,98853.97
2022-10-13T17:30:22.275Z,98852.31
2022-10-13T17:32:52.347Z,98853.31
2022-10-13T17:35:23.287Z,98853.78
2022-10-13T17:37:51.050Z,98855.25
2022-10-13T17:40:19.260Z,98851.91
2022-10-13T17:42:47.081Z,98860.28
2022-10-13T17:45:18.545Z,98854.44
2022-10-13T17:47:49.530Z,98853.22
2022-10-13T17:50:17.811Z,98858.25
2022-10-13T17:52:45.673Z,98856.78
2022-10-13T17:55:13.451Z,98850.28
2022-10-13T17:57:43.337Z,98857.63
2022-10-13T18:00:12.479Z,98861.81
2022-10-13T18:02:41.661Z,98854.63
2022-10-13T18:05:09.772Z,98861.50
2022-10-13T18:07:37.660Z,98861.38
2022-10-13T18:10:06.711Z,98864.34
2022-10-13T18:12:34.524Z,98862.34
2022-10-13T18:15:02.308Z,98855.84
2022-10-13T18:17:30.041Z,98854.69
2022-10-13T18:19:59.863Z,98854.31
2022-10-13T18:22:28.516Z,98852.50
2022-10-13T18:24:57.401Z,98858.69
2022-10-13T18:27:25.177Z,98871.38
2022-10-13T18:29:52.937Z,98855.63
2022-10-13T18:32:22.561Z,98864.97
2022-10-13T18:34:50.273Z,98863.28
2022-10-13T18:37:19.682Z,98864.19
2022-10-13T18:39:49.512Z,98863.22
2022-10-13T18:42:17.196Z,98861.16
2022-10-13T18:44:44.899Z,98861.84
2022-10-13T18:47:12.638Z,98866.59
2022-10-13T18:49:40.307Z,98863.59
2022-10-13T18:52:08.041Z,98875.38
2022-10-13T18:54:41.139Z,98874.97
2022-10-13T18:57:08.837Z,98861.59
2022-10-13T18:59:38.613Z,98865.06
2022-10-13T19:02:06.516Z,98871.41
2022-10-13T19:04:36.232Z,98862.97
2022-10-13T19:07:04.273Z,98856.88
2022-10-13T19:09:32.087Z,98858.41
2022-10-13T19:12:01.147Z,98848.38
2022-10-13T19:14:31.207Z,98849.78
2022-10-13T19:17:01.942Z,98851.72
2022-10-13T19:19:30.647Z,98852.53
2022-10-13T19:21:58.553Z,98858.41
2022-10-13T19:24:26.292Z,98860.72
2022-10-13T19:26:54.045Z,98848.09
2022-10-13T19:29:23.157Z,98849.38
2022-10-13T19:31:52.982Z,98852.41
2022-10-13T19:34:20.922Z,98852.50
2022-10-13T19:36:49.128Z,98861.22
2022-10-13T19:39:19.718Z,98861.22
2022-10-13T19:41:48.465Z,98851.56
2022-10-13T19:44:17.522Z,98857.56
2022-10-13T19:46:48.025Z,98863.50
2022-10-13T19:49:21.141Z,98859.53
2022-10-13T19:51:50.052Z,98865.41
2022-10-13T19:54:19.442Z,98875.03
2022-10-13T19:56:49.011Z,98867.34
2022-10-13T19:59:17.623Z,98875.66
2022-10-13T20:01:46.733Z,98871.38
2022-10-13T20:04:15.845Z,98877.84
2022-10-13T20:06:44.451Z,98877.69
2022-10-13T20:09:12.241Z,98880.47
2022-10-13T20:11:39.976Z,98877.38
2022-10-13T20:14:07.774Z,98883.22
2022-10-13T20:16:36.678Z,98876.72
2022-10-13T20:19:05.790Z,98877.56
2022-10-13T20:21:33.534Z,98879.03
2022-10-13T20:24:01.322Z,98882.81
2022-10-13T20:26:29.321Z,98886.72
2022-10-13T20:28:58.131Z,98884.78
2022-10-13T20:31:26.514Z,98885.75
2022-10-13T20:33:55.751Z,98891.44
2022-10-13T20:36:28.839Z,98892.66
2022-10-13T20:38:56.928Z,98897.72
2022-10-13T20:41:28.288Z,98895.75
2022-10-13T20:43:57.810Z,98896.16
2022-10-13T20:46:25.903Z,98898.97
2022-10-13T20:49:11.811Z,98893.19
2022-10-13T20:51:42.499Z,98888.53
2022-10-13T20:54:14.083Z,98887.25
2022-10-13T20:56:42.364Z,98882.31
2022-10-13T20:59:14.526Z,98875.72
2022-10-13T21:01:42.435Z,98873.97
2022-10-13T21:04:11.167Z,98871.97
2022-10-13T21:06:39.307Z,98874.25
2022-10-13T21:09:08.775Z,98877.06
2022-10-13T21:11:40.527Z,98876.63
2022-10-13T21:14:09.595Z,98874.09
2022-10-13T21:16:38.384Z,98876.25
2022-10-13T21:19:09.901Z,98872.75
2022-10-13T21:21:37.843Z,98869.53
2022-10-13T21:24:08.624Z,98873.19
2022-10-13T21:26:37.695Z,98879.22
2022-10-13T21:29:13.325Z,98879.63
2022-10-13T21:31:41.126Z,98892.28
2022-10-13T21:34:08.946Z,98888.31
2022-10-13T21:36:36.659Z,98895.91
2022-10-13T21:39:06.447Z,98888.03
2022-10-13T21:41:35.521Z,98892.13
2022-10-13T21:44:03.559Z,98881.00
2022-10-13T21:46:34.706Z,98886.34
2022-10-13T21:49:04.443Z,98880.81
2022-10-13T21:51:33.437Z,98883.56
2022-10-13T21:54:03.693Z,98885.16
2022-10-13T21:56:32.597Z,98880.91
2022-10-13T21:59:02.286Z,98881.09
2022-10-13T22:01:30.526Z,98888.22
2022-10-13T22:04:01.355Z,98892.47
2022-10-13T22:06:31.647Z,98884.50
2022-10-13T22:09:03.951Z,98882.00
2022-10-13T22:11:34.405Z,98887.28
2022-10-13T22:14:08.678Z,98888.84
2022-10-13T22:16:40.671Z,98889.59
2022-10-13T22:19:08.784Z,98888.78
2022-10-13T22:21:40.091Z,98896.44
2022-10-13T22:24:10.520Z,98896.97
2022-10-13T22:26:41.168Z,98895.75
2022-10-13T22:29:12.940Z,98894.34
2022-10-13T22:31:41.480Z,98889.84
2022-10-13T22:34:12.954Z,98894.16
2022-10-13T22:36:44.738Z,98892.22
2022-10-13T22:39:13.213Z,98888.78
2022-10-13T22:41:41.404Z,98891.88
2022-10-13T22:44:10.528Z,98893.19
2022-10-13T22:46:39.014Z,98889.25
2022-10-13T22:49:08.113Z,98890.28
2022-10-13T22:51:37.604Z,98893.63
2022-10-13T22:54:07.528Z,98900.22
2022-10-13T22:56:36.148Z,98888.88
2022-10-13T22:59:07.317Z,98892.78
2022-10-13T23:01:38.815Z,98887.91
2022-10-13T23:04:06.887Z,98894.75
2022-10-13T23:06:36.055Z,98890.09
2022-10-13T23:09:08.129Z,98895.72
2022-10-13T23:11:36.692Z,98892.31
2022-10-13T23:14:07.091Z,98886.22
2022-10-13T23:16:35.241Z,98881.69
2022-10-13T23:19:04.623Z,98879.56
2022-10-13T23:21:32.872Z,98875.47
2022-10-13T23:24:02.768Z,98873.38
2022-10-13T23:26:31.503Z,98878.13
2022-10-13T23:29:00.028Z,98877.56
2022-10-13T23:31:28.670Z,98880.41
2022-10-13T23:33:56.749Z,98882.41
2022-10-13T23:36:28.269Z,98877.28
2022-10-13T23:38:58.118Z,98877.00
2022-10-13T23:41:26.232Z,98876.44
2022-10-13T23:43:56.244Z,98873.63
2022-10-13T23:46:24.161Z,98882.50
2022-10-13T23:48:52.255Z,98886.28
2022-10-13T23:51:21.920Z,98880.84
2022-10-13T23:53:51.731Z,98879.47
2022-10-13T23:56:20.404Z,98884.78
2022-10-13T23:58:48.527Z,98878.75
